Seattle/Boeing Field, Washington
Current Conditions -  °F | °C
As of 7:00 AM on Wednesday 22 Oct 2014 (Local Time) from KBFI Reporting Station
Moderate Rain Moderate Rain  
Wind Chill: 57°   Ceiling: 3800
Heat Index: 57°   Visibility: 9mi
Dew Point: 54°   Wind: 7mph
Humidity: 88%   Direction: 170°S
Pressure: 29.69"   Gusts: NA
Location:  47.53°N, 122.3°W
Report Text: KBFI 221400Z 17006KT 9SM RA SCT029 BKN038 OVC047 14/12 A2969 RMK AO2 P0000
Loading
Personal Weather Stations






























Interactive Weather Map
Tropical Storm Tracking
New forecast layout! Learn more

10-Day Weather Forecast

Advertisements
Track Severe Weather on mobile